This is the latest recevied weather packets stored in our database for station/object DK6MR. If no packets are shown the sender has not sent any weather packets the latest 10 day(s).
| Time | Temp. | Humidity | Pressure | Rain* | Wind** | Luminosity | Snow |
|---|---|---|---|---|---|---|---|
| 1777513035 | 8.89° C | 45% | 1026 hPa | 0 mm | - | - | - |
| 1777512134 | 8.89° C | 46% | 1025.7 hPa | 0 mm | - | - | - |
| 1777511233 | 9.44° C | 44% | 1026 hPa | 0 mm | - | - | - |
| 1777510332 | 10° C | 43% | 1025.7 hPa | 0 mm | - | - | - |
| 1777509431 | 10° C | 44% | 1025.7 hPa | 0 mm | - | - | - |
| 1777508530 | 10° C | 43% | 1025.7 hPa | 0 mm | - | - | - |
| 1777507629 | 10° C | 45% | 1025.7 hPa | 0 mm | - | - | - |
| 1777506728 | 9.44° C | 45% | 1025.7 hPa | 0 mm | - | - | - |
| 1777505828 | 10.56° C | 43% | 1025.7 hPa | 0 mm | - | - | - |
| 1777504927 | 10° C | 47% | 1025.7 hPa | 0 mm | - | - | - |
| 1777504026 | 10.56° C | 43% | 1025.7 hPa | 0 mm | - | - | - |
| 1777503125 | 11.11° C | 42% | 1025.7 hPa | 0 mm | - | - | - |
| 1777502224 | 11.67° C | 41% | 1025.4 hPa | 0 mm | - | - | - |
| 1777501323 | 11.67° C | 41% | 1025 hPa | 0 mm | - | - | - |
| 1777500422 | 12.22° C | 40% | 1025 hPa | 0 mm | - | - | - |
| 1777499521 | 12.22° C | 39% | 1025 hPa | 0 mm | - | - | - |
| 1777498620 | 12.22° C | 40% | 1025 hPa | 0 mm | - | - | - |
| 1777497719 | 12.78° C | 39% | 1024.7 hPa | 0 mm | - | - | - |
| 1777496818 | 12.78° C | 38% | 1024.7 hPa | 0 mm | - | - | - |
| 1777495917 | 13.33° C | 37% | 1024.7 hPa | 0 mm | - | - | - |
| 1777495017 | 13.33° C | 36% | 1024.4 hPa | 0 mm | - | - | - |
| 1777494116 | 13.89° C | 36% | 1024.4 hPa | 0 mm | - | - | - |
| 1777493215 | 13.89° C | 36% | 1024 hPa | 0 mm | - | - | - |
| 1777492314 | 13.89° C | 37% | 1024 hPa | 0 mm | - | - | - |
| 1777491413 | 14.44° C | 36% | 1024 hPa | 0 mm | - | - | - |
* Rain latest hour (hover to see other rain measurements)
** Current wind speed in m/s (hover to see current wind gust speed)